Terminal Aerodrome Forecast
Issued by NWS

Home | Current Version | Previous Version | Text Only | Print | Product List | Glossary On
Versions: 1 2 3 4 5 6 7 8 9 10 11 12 13 14 15 16
000
FTUS45 KRIW 260500
TAFJAC
TAF
KJAC 260538Z 2606/2706 36007KT P6SM VCFG SCT004
      TEMPO 2606/2609 5SM BR BKN004
     FM260900 35006KT 5SM BR BKN004
     FM261700 VRB05KT P6SM SCT030
     FM270200 36006KT P6SM FEW030
      AMD LTD TO CLD VIS AND WIND=

USA.gov is the U.S. government's official web portal to all federal, state and local government web resources and services.